Terminal Aerodrome Forecast
Issued by NWS Cleveland, OH

Home | Current Version | Previous Version | Graphics & Text | Print | Product List | Glossary On
Versions: 1 2 3 4 5 6 7 8 9 10 11 12 13 14 15 16 17
301
FTUS41 KCLE 050858 AAA
TAFERI
TAF AMD
KERI 050858Z 0509/0606 31010G15KT P6SM BKN015 OVC030
      TEMPO 0509/0512 SCT015 OVC035
     FM051200 28006KT P6SM -SHSN OVC035
     FM052100 29013KT P6SM SCT015 BKN035=

USA.gov is the U.S. government's official web portal to all federal, state and local government web resources and services.